sensor_id;sensor_type;location;lat;lon;timestamp;pressure;altitude;pressure_sealevel;temperature;humidity
25650;BME280;13505;45.196;5.696;2022-10-24T04:02:58;99030.91;;;19.14;86.88
25650;BME280;13505;45.196;5.696;2022-10-24T04:07:49;99039.94;;;19.22;86.66
25650;BME280;13505;45.196;5.696;2022-10-24T04:12:39;99016.53;;;19.15;91.58
25650;BME280;13505;45.196;5.696;2022-10-24T04:17:30;99008.53;;;19.15;88.68
25650;BME280;13505;45.196;5.696;2022-10-24T04:22:20;99027.91;;;19.07;92.20
25650;BME280;13505;45.196;5.696;2022-10-24T04:27:10;98998.34;;;19.08;92.44
25650;BME280;13505;45.196;5.696;2022-10-24T04:32:01;99016.84;;;19.00;94.04
25650;BME280;13505;45.196;5.696;2022-10-24T04:36:51;99023.66;;;19.04;95.14
25650;BME280;13505;45.196;5.696;2022-10-24T04:41:42;99042.81;;;19.09;94.21
25650;BME280;13505;45.196;5.696;2022-10-24T04:46:32;99046.47;;;18.97;93.35
25650;BME280;13505;45.196;5.696;2022-10-24T04:51:23;99058.13;;;19.07;90.93
25650;BME280;13505;45.196;5.696;2022-10-24T04:56:13;99065.88;;;19.10;92.86
25650;BME280;13505;45.196;5.696;2022-10-24T05:01:03;99084.97;;;18.94;94.16
25650;BME280;13505;45.196;5.696;2022-10-24T05:05:54;99071.16;;;18.89;96.09
25650;BME280;13505;45.196;5.696;2022-10-24T05:10:44;99067.25;;;18.93;95.51
25650;BME280;13505;45.196;5.696;2022-10-24T05:15:35;99093.84;;;18.95;96.17
25650;BME280;13505;45.196;5.696;2022-10-24T05:20:25;99100.91;;;18.96;93.17
25650;BME280;13505;45.196;5.696;2022-10-24T05:25:16;99098.09;;;18.97;90.87
25650;BME280;13505;45.196;5.696;2022-10-24T05:30:07;99081.22;;;18.97;91.96
25650;BME280;13505;45.196;5.696;2022-10-24T05:34:57;99061.06;;;18.93;91.25
25650;BME280;13505;45.196;5.696;2022-10-24T05:39:48;99051.69;;;18.99;90.67
25650;BME280;13505;45.196;5.696;2022-10-24T05:44:38;99065.19;;;18.97;91.14
25650;BME280;13505;45.196;5.696;2022-10-24T05:49:29;99081.13;;;18.87;94.68
25650;BME280;13505;45.196;5.696;2022-10-24T05:54:19;99082.69;;;18.46;100.00
25650;BME280;13505;45.196;5.696;2022-10-24T05:59:09;99113.09;;;18.66;99.96
25650;BME280;13505;45.196;5.696;2022-10-24T06:04:00;99136.53;;;18.62;99.52
25650;BME280;13505;45.196;5.696;2022-10-24T06:08:50;99110.84;;;18.16;100.00
25650;BME280;13505;45.196;5.696;2022-10-24T06:13:41;99072.84;;;18.35;93.56
25650;BME280;13505;45.196;5.696;2022-10-24T06:18:32;99137.63;;;18.82;91.32
25650;BME280;13505;45.196;5.696;2022-10-24T06:23:22;99163.25;;;18.74;96.18
25650;BME280;13505;45.196;5.696;2022-10-24T06:28:13;99178.66;;;18.47;100.00
25650;BME280;13505;45.196;5.696;2022-10-24T06:33:04;99186.41;;;18.16;99.85
25650;BME280;13505;45.196;5.696;2022-10-24T06:37:54;99205.00;;;18.18;100.00
25650;BME280;13505;45.196;5.696;2022-10-24T06:42:44;99174.53;;;18.20;100.00
25650;BME280;13505;45.196;5.696;2022-10-24T06:47:35;99186.66;;;18.13;100.00
25650;BME280;13505;45.196;5.696;2022-10-24T06:52:25;99184.88;;;17.89;100.00
25650;BME280;13505;45.196;5.696;2022-10-24T06:57:16;99193.66;;;18.03;100.00
25650;BME280;13505;45.196;5.696;2022-10-24T07:02:09;99188.34;;;18.14;100.00
25650;BME280;13505;45.196;5.696;2022-10-24T07:07:01;99185.34;;;18.19;100.00
25650;BME280;13505;45.196;5.696;2022-10-24T07:11:51;99196.72;;;18.21;100.00
25650;BME280;13505;45.196;5.696;2022-10-24T07:16:42;99201.28;;;17.96;100.00
25650;BME280;13505;45.196;5.696;2022-10-24T07:21:32;99188.03;;;17.94;100.00
25650;BME280;13505;45.196;5.696;2022-10-24T07:26:24;99200.13;;;17.76;100.00
25650;BME280;13505;45.196;5.696;2022-10-24T07:31:16;99186.94;;;17.85;100.00
25650;BME280;13505;45.196;5.696;2022-10-24T07:36:07;99177.19;;;17.73;100.00
25650;BME280;13505;45.196;5.696;2022-10-24T07:41:02;99179.94;;;17.60;100.00
25650;BME280;13505;45.196;5.696;2022-10-24T07:45:52;99172.19;;;17.33;100.00
25650;BME280;13505;45.196;5.696;2022-10-24T07:50:44;99170.19;;;17.48;100.00
25650;BME280;13505;45.196;5.696;2022-10-24T07:55:42;99158.59;;;17.60;100.00
25650;BME280;13505;45.196;5.696;2022-10-24T08:00:33;99165.66;;;17.72;100.00
25650;BME280;13505;45.196;5.696;2022-10-24T08:05:23;99167.84;;;17.67;100.00
25650;BME280;13505;45.196;5.696;2022-10-24T08:10:14;99159.03;;;17.42;100.00
25650;BME280;13505;45.196;5.696;2022-10-24T08:15:05;99139.97;;;17.71;100.00
25650;BME280;13505;45.196;5.696;2022-10-24T08:19:55;99161.50;;;17.57;100.00
25650;BME280;13505;45.196;5.696;2022-10-24T08:24:45;99162.19;;;17.48;100.00
25650;BME280;13505;45.196;5.696;2022-10-24T08:29:37;99158.00;;;17.68;100.00
25650;BME280;13505;45.196;5.696;2022-10-24T08:34:28;99170.78;;;17.76;100.00
25650;BME280;13505;45.196;5.696;2022-10-24T08:39:19;99163.41;;;17.79;100.00
25650;BME280;13505;45.196;5.696;2022-10-24T08:44:29;99150.63;;;17.71;100.00
25650;BME280;13505;45.196;5.696;2022-10-24T08:54:39;99150.63;;;17.71;100.00
25650;BME280;13505;45.196;5.696;2022-10-24T08:59:33;99136.78;;;17.55;100.00
25650;BME280;13505;45.196;5.696;2022-10-24T09:04:25;99139.00;;;17.72;100.00
25650;BME280;13505;45.196;5.696;2022-10-24T09:09:35;99138.09;;;17.85;100.00
25650;BME280;13505;45.196;5.696;2022-10-24T09:14:29;99140.25;;;17.91;100.00
25650;BME280;13505;45.196;5.696;2022-10-24T09:19:23;99143.06;;;17.90;100.00
25650;BME280;13505;45.196;5.696;2022-10-24T09:29:19;99125.56;;;17.85;100.00
25650;BME280;13505;45.196;5.696;2022-10-24T09:34:10;99146.50;;;18.03;100.00
25650;BME280;13505;45.196;5.696;2022-10-24T09:39:22;99152.31;;;18.08;100.00
25650;BME280;13505;45.196;5.696;2022-10-24T09:44:29;99142.97;;;18.14;100.00
25650;BME280;13505;45.196;5.696;2022-10-24T09:49:22;99174.78;;;18.17;100.00
25650;BME280;13505;45.196;5.696;2022-10-24T10:04:14;99228.56;;;18.47;99.68
25650;BME280;13505;45.196;5.696;2022-10-24T10:09:11;99237.81;;;18.65;99.26
25650;BME280;13505;45.196;5.696;2022-10-24T10:14:03;99246.66;;;18.77;98.80
25650;BME280;13505;45.196;5.696;2022-10-24T10:19:17;99253.69;;;18.90;96.95
25650;BME280;13505;45.196;5.696;2022-10-24T10:24:23;99242.09;;;19.02;95.38
25650;BME280;13505;45.196;5.696;2022-10-24T10:44:58;99236.09;;;19.65;90.38
25650;BME280;13505;45.196;5.696;2022-10-24T10:49:56;99232.19;;;19.70;88.66
25650;BME280;13505;45.196;5.696;2022-10-24T10:55:23;99238.50;;;19.69;85.44
25650;BME280;13505;45.196;5.696;2022-10-24T11:05:48;99227.09;;;19.66;83.34
25650;BME280;13505;45.196;5.696;2022-10-24T11:10:53;99229.72;;;19.78;82.06
25650;BME280;13505;45.196;5.696;2022-10-24T11:15:50;99224.31;;;19.24;85.77
25650;BME280;13505;45.196;5.696;2022-10-24T11:20:58;99221.53;;;19.58;85.12
25650;BME280;13505;45.196;5.696;2022-10-24T11:25:55;99225.44;;;19.43;84.00
25650;BME280;13505;45.196;5.696;2022-10-24T11:31:05;99233.75;;;19.39;84.55
25650;BME280;13505;45.196;5.696;2022-10-24T11:36:12;99208.09;;;19.37;85.62
25650;BME280;13505;45.196;5.696;2022-10-24T11:41:32;99205.41;;;19.70;85.78
25650;BME280;13505;45.196;5.696;2022-10-24T11:46:31;99220.75;;;19.67;85.26
25650;BME280;13505;45.196;5.696;2022-10-24T11:51:34;99202.19;;;19.55;84.11
25650;BME280;13505;45.196;5.696;2022-10-24T11:56:36;99188.72;;;19.77;83.12
25650;BME280;13505;45.196;5.696;2022-10-24T12:22:34;99139.13;;;19.94;80.64
25650;BME280;13505;45.196;5.696;2022-10-24T12:27:29;99122.47;;;20.12;80.09
25650;BME280;13505;45.196;5.696;2022-10-24T12:47:27;99140.69;;;20.18;78.00
25650;BME280;13505;45.196;5.696;2022-10-24T12:57:22;99118.78;;;20.34;78.08
25650;BME280;13505;45.196;5.696;2022-10-24T13:38:23;99077.44;;;20.27;80.35
25650;BME280;13505;45.196;5.696;2022-10-24T13:43:16;99063.94;;;20.39;81.10
25650;BME280;13505;45.196;5.696;2022-10-24T13:48:15;99065.41;;;20.53;80.04
25650;BME280;13505;45.196;5.696;2022-10-24T13:53:22;99082.75;;;20.58;78.96
25650;BME280;13505;45.196;5.696;2022-10-24T14:03:17;99076.19;;;20.82;76.82
25650;BME280;13505;45.196;5.696;2022-10-24T14:08:08;99078.56;;;20.75;75.86
25650;BME280;13505;45.196;5.696;2022-10-24T14:12:59;99085.84;;;20.63;75.48
25650;BME280;13505;45.196;5.696;2022-10-24T14:18:12;99078.34;;;20.47;77.69
25650;BME280;13505;45.196;5.696;2022-10-24T14:23:26;99080.28;;;20.35;79.31
25650;BME280;13505;45.196;5.696;2022-10-24T14:28:20;99090.97;;;20.26;80.34
25650;BME280;13505;45.196;5.696;2022-10-24T14:38:04;99095.31;;;20.17;82.31
25650;BME280;13505;45.196;5.696;2022-10-24T14:42:54;99090.34;;;20.12;80.92
25650;BME280;13505;45.196;5.696;2022-10-24T14:47:51;99070.59;;;20.03;81.05
25650;BME280;13505;45.196;5.696;2022-10-24T14:52:43;99094.75;;;19.92;85.59
25650;BME280;13505;45.196;5.696;2022-10-24T14:57:35;99103.00;;;19.89;87.60
25650;BME280;13505;45.196;5.696;2022-10-24T15:02:30;99106.88;;;19.75;89.54
25650;BME280;13505;45.196;5.696;2022-10-24T15:12:12;99129.09;;;19.65;94.45
25650;BME280;13505;45.196;5.696;2022-10-24T15:22:18;99090.09;;;18.31;87.11
25650;BME280;13505;45.196;5.696;2022-10-24T15:27:12;99102.69;;;18.51;93.03
25650;BME280;13505;45.196;5.696;2022-10-24T15:32:10;99123.47;;;18.36;94.49
25650;BME280;13505;45.196;5.696;2022-10-24T15:37:00;99135.56;;;18.52;95.13
25650;BME280;13505;45.196;5.696;2022-10-24T15:41:53;99160.84;;;18.48;99.57
25650;BME280;13505;45.196;5.696;2022-10-24T15:46:44;99167.16;;;18.47;100.00
25650;BME280;13505;45.196;5.696;2022-10-24T15:51:36;99191.06;;;18.48;100.00
25650;BME280;13505;45.196;5.696;2022-10-24T15:56:26;99195.81;;;18.45;100.00
25650;BME280;13505;45.196;5.696;2022-10-24T16:01:37;99209.16;;;18.45;100.00
25650;BME280;13505;45.196;5.696;2022-10-24T16:06:29;99190.81;;;18.51;98.75
25650;BME280;13505;45.196;5.696;2022-10-24T16:11:20;99194.34;;;18.52;96.92
25650;BME280;13505;45.196;5.696;2022-10-24T16:16:11;99184.00;;;18.47;98.88
25650;BME280;13505;45.196;5.696;2022-10-24T16:21:02;99194.31;;;18.40;99.87
25650;BME280;13505;45.196;5.696;2022-10-24T16:25:54;99196.91;;;18.53;100.00
25650;BME280;13505;45.196;5.696;2022-10-24T16:30:45;99200.53;;;18.64;99.11
25650;BME280;13505;45.196;5.696;2022-10-24T16:35:37;99190.72;;;18.64;99.15
25650;BME280;13505;45.196;5.696;2022-10-24T16:40:28;99200.66;;;18.51;99.02
25650;BME280;13505;45.196;5.696;2022-10-24T16:45:20;99214.97;;;18.50;100.00
25650;BME280;13505;45.196;5.696;2022-10-24T16:50:12;99213.63;;;18.44;100.00
25650;BME280;13505;45.196;5.696;2022-10-24T16:55:04;99228.47;;;18.48;100.00
25650;BME280;13505;45.196;5.696;2022-10-24T16:59:54;99229.75;;;18.42;100.00
25650;BME280;13505;45.196;5.696;2022-10-24T17:04:45;99225.75;;;18.25;100.00
25650;BME280;13505;45.196;5.696;2022-10-24T17:09:35;99242.09;;;18.21;100.00
25650;BME280;13505;45.196;5.696;2022-10-24T17:14:27;99248.03;;;18.13;100.00
25650;BME280;13505;45.196;5.696;2022-10-24T17:19:17;99274.91;;;18.23;100.00
25650;BME280;13505;45.196;5.696;2022-10-24T17:24:11;99266.28;;;18.19;100.00
25650;BME280;13505;45.196;5.696;2022-10-24T17:29:03;99274.25;;;18.08;100.00
25650;BME280;13505;45.196;5.696;2022-10-24T17:33:54;99279.28;;;18.24;100.00
25650;BME280;13505;45.196;5.696;2022-10-24T17:38:58;99290.66;;;18.15;100.00
25650;BME280;13505;45.196;5.696;2022-10-24T17:43:52;99296.06;;;17.89;100.00
25650;BME280;13505;45.196;5.696;2022-10-24T17:48:42;99296.25;;;17.98;100.00
25650;BME280;13505;45.196;5.696;2022-10-24T17:53:32;99303.25;;;17.88;100.00
25650;BME280;13505;45.196;5.696;2022-10-24T17:58:23;99302.66;;;17.71;100.00
25650;BME280;13505;45.196;5.696;2022-10-24T18:03:14;99333.06;;;17.44;100.00
25650;BME280;13505;45.196;5.696;2022-10-24T18:08:06;99336.13;;;17.64;100.00
25650;BME280;13505;45.196;5.696;2022-10-24T18:12:56;99347.84;;;17.62;100.00
25650;BME280;13505;45.196;5.696;2022-10-24T18:17:47;99346.81;;;17.51;100.00
25650;BME280;13505;45.196;5.696;2022-10-24T18:22:37;99343.06;;;17.54;100.00
25650;BME280;13505;45.196;5.696;2022-10-24T18:27:28;99365.81;;;17.34;100.00
25650;BME280;13505;45.196;5.696;2022-10-24T18:32:18;99359.50;;;17.48;100.00
25650;BME280;13505;45.196;5.696;2022-10-24T18:37:09;99364.50;;;17.52;100.00
25650;BME280;13505;45.196;5.696;2022-10-24T18:42:04;99367.19;;;17.39;100.00
25650;BME280;13505;45.196;5.696;2022-10-24T18:47:02;99375.34;;;17.62;100.00
25650;BME280;13505;45.196;5.696;2022-10-24T18:52:09;99377.19;;;17.62;100.00
25650;BME280;13505;45.196;5.696;2022-10-24T18:57:01;99372.03;;;17.71;100.00
25650;BME280;13505;45.196;5.696;2022-10-24T19:06:57;99371.59;;;17.27;100.00
25650;BME280;13505;45.196;5.696;2022-10-24T19:11:48;99373.72;;;17.22;100.00
25650;BME280;13505;45.196;5.696;2022-10-24T19:16:40;99375.34;;;17.25;100.00
25650;BME280;13505;45.196;5.696;2022-10-24T19:21:33;99372.22;;;17.31;100.00
25650;BME280;13505;45.196;5.696;2022-10-24T19:26:23;99397.16;;;17.30;100.00
25650;BME280;13505;45.196;5.696;2022-10-24T19:31:14;99412.00;;;17.21;100.00
25650;BME280;13505;45.196;5.696;2022-10-24T19:36:06;99384.06;;;17.14;100.00
25650;BME280;13505;45.196;5.696;2022-10-24T19:40:56;99390.03;;;17.05;100.00
25650;BME280;13505;45.196;5.696;2022-10-24T19:45:48;99423.25;;;16.99;100.00
25650;BME280;13505;45.196;5.696;2022-10-24T19:50:38;99438.56;;;17.10;100.00
25650;BME280;13505;45.196;5.696;2022-10-24T19:55:28;99427.41;;;16.77;100.00
25650;BME280;13505;45.196;5.696;2022-10-24T20:00:19;99428.94;;;16.94;100.00
25650;BME280;13505;45.196;5.696;2022-10-24T20:05:10;99437.16;;;17.04;100.00
25650;BME280;13505;45.196;5.696;2022-10-24T20:10:00;99439.69;;;16.93;100.00
25650;BME280;13505;45.196;5.696;2022-10-24T20:14:50;99460.50;;;17.00;100.00
25650;BME280;13505;45.196;5.696;2022-10-24T20:19:41;99517.75;;;17.08;100.00
25650;BME280;13505;45.196;5.696;2022-10-24T20:29:22;99476.88;;;14.65;100.00
25650;BME280;13505;45.196;5.696;2022-10-24T20:34:13;99508.81;;;15.10;100.00
25650;BME280;13505;45.196;5.696;2022-10-24T20:39:05;99510.56;;;15.40;100.00
25650;BME280;13505;45.196;5.696;2022-10-24T20:43:55;99500.31;;;15.48;100.00
25650;BME280;13505;45.196;5.696;2022-10-24T20:48:46;99522.28;;;15.67;100.00
25650;BME280;13505;45.196;5.696;2022-10-24T20:53:37;99529.00;;;15.87;100.00
25650;BME280;13505;45.196;5.696;2022-10-24T20:58:27;99549.53;;;15.99;100.00
25650;BME280;13505;45.196;5.696;2022-10-24T21:03:17;99551.34;;;16.13;100.00
25650;BME280;13505;45.196;5.696;2022-10-24T21:08:07;99558.81;;;16.21;100.00
25650;BME280;13505;45.196;5.696;2022-10-24T21:12:58;99560.34;;;16.11;100.00
25650;BME280;13505;45.196;5.696;2022-10-24T21:17:50;99570.50;;;16.18;100.00
25650;BME280;13505;45.196;5.696;2022-10-24T21:22:40;99584.09;;;16.14;100.00
25650;BME280;13505;45.196;5.696;2022-10-24T21:27:30;99600.06;;;16.14;100.00
25650;BME280;13505;45.196;5.696;2022-10-24T21:32:20;99612.75;;;16.10;100.00
25650;BME280;13505;45.196;5.696;2022-10-24T21:37:11;99600.28;;;16.11;100.00
25650;BME280;13505;45.196;5.696;2022-10-24T21:42:01;99609.00;;;16.13;100.00
25650;BME280;13505;45.196;5.696;2022-10-24T21:46:51;99613.56;;;16.11;100.00
25650;BME280;13505;45.196;5.696;2022-10-24T21:51:43;99611.88;;;16.10;100.00
25650;BME280;13505;45.196;5.696;2022-10-24T21:56:35;99622.44;;;16.11;100.00
